createdAt,value
2019-02-05T00:01:37.523Z,55.67
2019-02-05T00:04:07.441Z,55.77
2019-02-05T00:06:37.475Z,55.73
2019-02-05T00:09:11.317Z,56.00
2019-02-05T00:11:41.255Z,56.25
2019-02-05T00:14:11.188Z,56.55
2019-02-05T00:16:41.497Z,56.51
2019-02-05T00:19:13.406Z,56.76
2019-02-05T00:21:43.575Z,56.81
2019-02-05T00:24:14.030Z,57.27
2019-02-05T00:26:44.119Z,57.08
2019-02-05T00:29:14.120Z,56.69
2019-02-05T00:31:44.823Z,57.28
2019-02-05T00:34:15.081Z,57.09
2019-02-05T00:36:45.038Z,57.05
2019-02-05T00:39:15.453Z,57.14
2019-02-05T00:41:45.419Z,56.76
2019-02-05T00:44:15.597Z,57.02
2019-02-05T00:46:45.557Z,56.81
2019-02-05T00:49:15.768Z,56.56
2019-02-05T00:51:45.796Z,56.37
2019-02-05T00:54:15.769Z,56.22
2019-02-05T00:56:45.693Z,56.50
2019-02-05T00:59:15.917Z,56.32
2019-02-05T01:01:46.068Z,56.53
2019-02-05T01:04:17.798Z,56.40
2019-02-05T01:06:48.472Z,56.65
2019-02-05T01:09:18.465Z,56.23
2019-02-05T01:11:48.677Z,56.24
2019-02-05T01:14:18.632Z,56.33
2019-02-05T01:16:48.516Z,56.09
2019-02-05T01:19:18.624Z,56.07
2019-02-05T01:21:48.916Z,56.42
2019-02-05T01:24:19.025Z,56.96
2019-02-05T01:26:48.962Z,56.51
2019-02-05T01:29:19.032Z,56.13
2019-02-05T01:31:48.950Z,56.04
2019-02-05T01:34:18.834Z,56.30
2019-02-05T01:36:48.766Z,56.33
2019-02-05T01:39:19.100Z,56.96
2019-02-05T01:41:49.068Z,56.79
2019-02-05T01:44:19.036Z,57.08
2019-02-05T01:46:49.110Z,57.40
2019-02-05T01:49:19.133Z,57.98
2019-02-05T01:51:49.176Z,58.06
2019-02-05T01:54:20.030Z,57.95
2019-02-05T01:56:50.500Z,59.30
2019-02-05T01:59:20.510Z,58.80
2019-02-05T02:01:50.454Z,58.89
2019-02-05T02:04:20.369Z,59.21
2019-02-05T02:06:50.582Z,60.36
2019-02-05T02:09:27.932Z,61.06
2019-02-05T02:12:06.986Z,62.79
2019-02-05T02:14:36.959Z,63.33
2019-02-05T02:17:07.130Z,63.37
2019-02-05T02:19:37.168Z,62.98
2019-02-05T02:22:08.373Z,63.38
2019-02-05T02:24:40.604Z,64.11
2019-02-05T02:27:10.674Z,64.81
2019-02-05T02:29:40.677Z,65.27
2019-02-05T02:32:10.985Z,64.82
2019-02-05T02:34:41.475Z,65.43
2019-02-05T02:37:11.413Z,65.85
2019-02-05T02:39:41.403Z,66.35
2019-02-05T02:42:11.425Z,66.53
2019-02-05T02:44:41.404Z,67.00
2019-02-05T02:47:11.420Z,67.54
2019-02-05T02:49:41.337Z,68.04
2019-02-05T02:52:11.225Z,68.40
2019-02-05T02:54:41.833Z,68.03
2019-02-05T02:57:11.747Z,68.13
2019-02-05T02:59:43.039Z,68.02
2019-02-05T03:02:12.929Z,68.25
2019-02-05T03:04:43.770Z,68.07
2019-02-05T03:07:15.378Z,68.69
2019-02-05T03:09:45.359Z,68.93
2019-02-05T03:12:15.410Z,68.83
2019-02-05T03:14:45.551Z,69.12
2019-02-05T03:17:15.550Z,68.89
2019-02-05T03:19:45.381Z,68.92
2019-02-05T03:22:15.353Z,69.29
2019-02-05T03:24:45.331Z,69.30
2019-02-05T03:27:18.217Z,69.71
2019-02-05T03:29:48.229Z,69.61
2019-02-05T03:32:18.282Z,69.54
2019-02-05T03:34:48.215Z,69.44
2019-02-05T03:37:18.215Z,68.91
2019-02-05T03:39:48.174Z,69.01
2019-02-05T03:42:18.037Z,70.04
2019-02-05T03:44:48.791Z,69.61
2019-02-05T03:47:19.531Z,68.80
2019-02-05T03:49:49.419Z,68.57
2019-02-05T03:52:41.447Z,68.58
2019-02-05T03:55:48.107Z,67.89
2019-02-05T03:58:52.135Z,67.82
2019-02-05T04:01:45.065Z,67.72
2019-02-05T04:05:05.621Z,67.57
2019-02-05T04:08:02.671Z,67.74
2019-02-05T04:11:22.745Z,67.65
2019-02-05T04:14:25.994Z,68.31
2019-02-05T04:17:57.545Z,67.93
2019-02-05T04:20:49.057Z,68.01
2019-02-05T04:23:55.815Z,68.18
2019-02-05T04:27:03.896Z,67.80
2019-02-05T04:30:13.669Z,67.67
2019-02-05T04:33:13.746Z,67.60
2019-02-05T04:36:23.441Z,67.82
2019-02-05T04:39:29.937Z,68.44
2019-02-05T04:42:25.122Z,68.45
2019-02-05T04:45:34.502Z,68.65
2019-02-05T04:48:43.572Z,68.56
2019-02-05T04:52:09.300Z,68.83
2019-02-05T04:55:15.193Z,69.46
2019-02-05T04:58:19.534Z,68.85
2019-02-05T05:01:24.753Z,69.46
2019-02-05T05:04:15.344Z,69.70
2019-02-05T05:07:03.119Z,69.59
2019-02-05T05:09:59.369Z,69.96
2019-02-05T05:12:40.717Z,69.60
2019-02-05T05:15:16.733Z,69.62
2019-02-05T05:17:48.268Z,69.43
2019-02-05T05:20:18.112Z,69.32
2019-02-05T05:22:48.360Z,69.71
2019-02-05T05:25:18.908Z,70.18
2019-02-05T05:27:53.281Z,70.22
2019-02-05T05:30:26.229Z,70.20
2019-02-05T05:32:58.934Z,69.93
2019-02-05T05:35:40.666Z,70.14
2019-02-05T05:38:03.513Z,70.58
2019-02-05T05:40:33.447Z,70.20
2019-02-05T05:43:11.628Z,70.33
2019-02-05T05:45:49.433Z,70.04
2019-02-05T05:48:20.086Z,70.02
2019-02-05T05:50:50.077Z,70.37
2019-02-05T05:53:20.536Z,70.04
2019-02-05T05:55:50.772Z,70.63
2019-02-05T05:58:23.164Z,70.62
2019-02-05T06:00:52.561Z,70.74
2019-02-05T06:03:22.574Z,70.43
2019-02-05T06:05:52.776Z,70.27
2019-02-05T06:08:22.899Z,70.37
2019-02-05T06:10:52.764Z,70.77
2019-02-05T06:13:22.746Z,70.80
2019-02-05T06:15:52.762Z,70.38
2019-02-05T06:18:23.376Z,70.69
2019-02-05T06:20:53.538Z,70.93
2019-02-05T06:23:23.498Z,70.87
2019-02-05T06:25:53.613Z,70.53
2019-02-05T06:28:34.405Z,70.47
2019-02-05T06:30:56.491Z,71.05
2019-02-05T06:33:29.016Z,70.61
2019-02-05T06:35:59.166Z,70.32
2019-02-05T06:38:29.230Z,70.82
2019-02-05T06:40:59.326Z,70.78
2019-02-05T06:43:31.464Z,70.53
2019-02-05T06:46:01.693Z,70.80
2019-02-05T06:48:31.652Z,70.46
2019-02-05T06:51:01.635Z,71.17
2019-02-05T06:53:31.716Z,70.59
2019-02-05T06:56:01.726Z,71.09
2019-02-05T06:58:31.646Z,71.65
2019-02-05T07:01:03.278Z,71.03
2019-02-05T07:03:33.212Z,71.43
2019-02-05T07:06:03.252Z,71.07
2019-02-05T07:08:33.450Z,71.58
2019-02-05T07:11:03.981Z,71.70
2019-02-05T07:13:35.730Z,71.77
2019-02-05T07:16:05.934Z,71.75
2019-02-05T07:18:35.968Z,71.41
2019-02-05T07:21:06.130Z,71.37
2019-02-05T07:23:36.223Z,70.92
2019-02-05T07:26:06.257Z,70.93
2019-02-05T07:28:36.195Z,70.77
2019-02-05T07:31:06.316Z,71.35
2019-02-05T07:33:36.420Z,71.39
2019-02-05T07:36:06.456Z,71.35
2019-02-05T07:38:36.399Z,71.23
2019-02-05T07:41:06.378Z,70.90
2019-02-05T07:43:36.328Z,70.89
2019-02-05T07:46:06.275Z,70.83
2019-02-05T07:48:36.247Z,71.47
2019-02-05T07:51:06.253Z,70.70
2019-02-05T07:53:36.268Z,70.48
2019-02-05T07:56:06.356Z,70.75
2019-02-05T07:58:36.492Z,70.49
2019-02-05T08:01:06.491Z,70.30
2019-02-05T08:03:36.742Z,69.92
2019-02-05T08:06:06.705Z,70.45
2019-02-05T08:08:37.609Z,70.41
2019-02-05T08:11:07.580Z,70.23
2019-02-05T08:13:37.598Z,70.81
2019-02-05T08:16:07.615Z,70.79
2019-02-05T08:18:39.533Z,70.81
2019-02-05T08:21:09.640Z,70.77
2019-02-05T08:23:39.634Z,70.47
2019-02-05T08:26:10.610Z,70.79
2019-02-05T08:28:43.725Z,71.03
2019-02-05T08:31:13.756Z,70.78
2019-02-05T08:33:43.712Z,70.36
2019-02-05T08:36:13.740Z,70.52
2019-02-05T08:38:43.700Z,71.11
2019-02-05T08:41:13.638Z,70.34
2019-02-05T08:43:43.629Z,70.68
2019-02-05T08:46:13.649Z,71.12
2019-02-05T08:48:43.516Z,70.88
2019-02-05T08:51:13.761Z,70.99
2019-02-05T08:53:43.712Z,70.76
2019-02-05T08:56:13.607Z,70.47
2019-02-05T08:58:43.397Z,70.90
2019-02-05T09:01:14.604Z,70.98
2019-02-05T09:03:44.909Z,70.57
2019-02-05T09:06:15.304Z,70.55
2019-02-05T09:08:45.264Z,71.23
2019-02-05T09:11:15.772Z,70.91
2019-02-05T09:13:45.936Z,70.92
2019-02-05T09:16:17.633Z,70.52
2019-02-05T09:18:49.073Z,69.73
2019-02-05T09:21:19.240Z,69.03
2019-02-05T09:23:49.492Z,69.50
2019-02-05T09:26:19.584Z,69.63
2019-02-05T09:28:52.535Z,69.50
2019-02-05T09:31:24.956Z,69.47
2019-02-05T09:33:56.694Z,69.37
2019-02-05T09:36:27.115Z,69.27
2019-02-05T09:38:57.201Z,69.14
2019-02-05T09:41:28.459Z,68.84
2019-02-05T09:44:00.683Z,68.69
2019-02-05T09:46:31.634Z,68.16
2019-02-05T09:49:01.612Z,67.78
2019-02-05T09:51:31.525Z,67.99
2019-02-05T09:54:01.721Z,67.20
2019-02-05T09:56:34.659Z,67.12
2019-02-05T09:59:04.689Z,67.78
2019-02-05T10:01:35.105Z,67.83
2019-02-05T10:04:05.478Z,68.42
2019-02-05T10:06:38.043Z,68.36
2019-02-05T10:09:09.034Z,68.40
2019-02-05T10:11:39.100Z,67.83
2019-02-05T10:14:09.091Z,67.68
2019-02-05T10:16:41.129Z,68.44
2019-02-05T10:19:11.644Z,68.50
2019-02-05T10:21:42.431Z,68.88
2019-02-05T10:24:15.665Z,68.17
2019-02-05T10:26:50.457Z,67.86
2019-02-05T10:29:20.477Z,68.18
2019-02-05T10:31:50.789Z,67.71
2019-02-05T10:34:20.811Z,66.90
2019-02-05T10:36:50.684Z,67.51
2019-02-05T10:39:20.696Z,67.60
2019-02-05T10:41:50.785Z,67.48
2019-02-05T10:44:20.918Z,66.93
2019-02-05T10:46:50.954Z,66.29
2019-02-05T10:49:20.928Z,65.80
2019-02-05T10:51:50.930Z,66.12
2019-02-05T10:54:20.841Z,66.21
2019-02-05T10:56:50.928Z,66.23
2019-02-05T10:59:21.941Z,66.44
2019-02-05T11:01:55.411Z,66.52
2019-02-05T11:04:25.627Z,66.89
2019-02-05T11:06:57.174Z,67.33
2019-02-05T11:09:28.071Z,68.44
2019-02-05T11:11:58.142Z,68.07
2019-02-05T11:14:35.464Z,68.42
2019-02-05T11:17:05.974Z,68.20
2019-02-05T11:19:36.085Z,68.54
2019-02-05T11:22:06.186Z,67.79
2019-02-05T11:24:37.356Z,68.08
2019-02-05T11:27:08.461Z,68.66
2019-02-05T11:29:38.889Z,68.43
2019-02-05T11:32:09.185Z,68.38
2019-02-05T11:34:39.382Z,68.16
2019-02-05T11:37:09.464Z,68.65
2019-02-05T11:39:39.753Z,68.51
2019-02-05T11:42:10.117Z,68.17
2019-02-05T11:44:47.507Z,68.03
2019-02-05T11:47:22.506Z,68.17
2019-02-05T11:49:53.164Z,68.21
2019-02-05T11:52:23.262Z,68.57
2019-02-05T11:54:54.675Z,67.89
2019-02-05T11:57:25.433Z,67.80
2019-02-05T11:59:55.663Z,68.20
2019-02-05T12:02:28.718Z,68.25
2019-02-05T12:04:59.229Z,68.18
2019-02-05T12:07:29.708Z,67.89
2019-02-05T12:10:03.321Z,68.69
2019-02-05T12:12:42.360Z,68.60
2019-02-05T12:15:13.034Z,69.39
2019-02-05T12:17:43.454Z,69.80
2019-02-05T12:20:15.138Z,70.21
2019-02-05T12:22:45.505Z,69.79
2019-02-05T12:25:16.444Z,69.10
2019-02-05T12:27:47.992Z,69.92
2019-02-05T12:30:20.945Z,69.57
2019-02-05T12:32:50.993Z,69.26
2019-02-05T12:35:21.131Z,69.29
2019-02-05T12:37:51.142Z,69.59
2019-02-05T12:40:21.650Z,70.19
2019-02-05T12:42:51.920Z,69.72
2019-02-05T12:45:24.249Z,70.43
2019-02-05T12:47:54.467Z,70.83
2019-02-05T12:50:26.891Z,70.86
2019-02-05T12:52:57.065Z,70.84
2019-02-05T12:55:27.383Z,71.39
2019-02-05T12:57:59.431Z,70.98
2019-02-05T13:00:34.529Z,70.55
2019-02-05T13:03:05.101Z,70.53
2019-02-05T13:05:35.351Z,70.20
2019-02-05T13:08:07.975Z,70.77
2019-02-05T13:10:40.302Z,71.07
2019-02-05T13:13:10.376Z,70.97
2019-02-05T13:15:40.749Z,71.02
2019-02-05T13:18:10.963Z,71.07
2019-02-05T13:20:41.734Z,71.60
2019-02-05T13:23:15.527Z,71.63
2019-02-05T13:25:46.195Z,71.39
2019-02-05T13:28:22.266Z,70.94
2019-02-05T13:30:52.681Z,71.15
2019-02-05T13:33:23.224Z,71.56
2019-02-05T13:35:53.531Z,71.30
2019-02-05T13:38:23.662Z,71.26
2019-02-05T13:40:53.963Z,71.16
2019-02-05T13:43:25.063Z,72.03
2019-02-05T13:45:55.291Z,72.44
2019-02-05T13:48:25.389Z,72.25
2019-02-05T13:50:56.377Z,72.50
2019-02-05T13:53:26.821Z,72.10
2019-02-05T13:55:57.041Z,71.93
2019-02-05T13:58:29.928Z,71.77
2019-02-05T14:01:00.020Z,71.44
2019-02-05T14:03:30.087Z,71.85
2019-02-05T14:06:00.130Z,71.71
2019-02-05T14:08:38.424Z,72.28
2019-02-05T14:11:04.327Z,72.95
2019-02-05T14:13:34.670Z,72.62
2019-02-05T14:16:04.989Z,72.55
2019-02-05T14:18:35.052Z,72.70
2019-02-05T14:21:07.253Z,72.91
2019-02-05T14:23:37.338Z,73.51
2019-02-05T14:26:10.452Z,73.30
2019-02-05T14:28:40.657Z,73.70
2019-02-05T14:31:10.903Z,74.22
2019-02-05T14:33:40.967Z,74.49
2019-02-05T14:36:10.934Z,74.95
2019-02-05T14:38:41.021Z,75.14
2019-02-05T14:41:11.287Z,74.73
2019-02-05T14:43:41.259Z,74.29
2019-02-05T14:46:13.264Z,74.60
2019-02-05T14:48:43.179Z,74.85
2019-02-05T14:51:13.576Z,74.68
2019-02-05T14:53:44.339Z,74.74
2019-02-05T14:56:14.482Z,74.20
2019-02-05T14:58:48.568Z,73.99
2019-02-05T15:01:22.300Z,73.58
2019-02-05T15:03:58.272Z,73.17
2019-02-05T15:06:32.049Z,73.13
2019-02-05T15:09:06.436Z,73.59
2019-02-05T15:11:46.554Z,73.87
2019-02-05T15:14:16.830Z,73.65
2019-02-05T15:16:47.186Z,73.96
2019-02-05T15:19:17.518Z,73.99
2019-02-05T15:21:48.026Z,73.85
2019-02-05T15:24:18.227Z,73.72
2019-02-05T15:26:48.487Z,73.75
2019-02-05T15:29:23.066Z,73.88
2019-02-05T15:31:55.614Z,74.21
2019-02-05T15:34:28.950Z,74.26
2019-02-05T15:37:10.763Z,74.05
2019-02-05T15:39:42.283Z,74.06
2019-02-05T15:42:19.588Z,73.98
2019-02-05T15:44:50.043Z,74.11
2019-02-05T15:47:20.270Z,74.50
2019-02-05T15:49:50.591Z,73.84
2019-02-05T15:52:20.736Z,73.91
2019-02-05T15:54:51.136Z,73.77
2019-02-05T15:57:21.656Z,73.92
2019-02-05T15:59:52.984Z,73.46
2019-02-05T16:02:23.102Z,74.02
2019-02-05T16:04:53.665Z,73.79
2019-02-05T16:07:23.668Z,73.79
2019-02-05T16:09:53.800Z,74.10
2019-02-05T16:12:24.016Z,73.92
2019-02-05T16:14:54.228Z,74.08
2019-02-05T16:17:24.638Z,73.71
2019-02-05T16:19:55.264Z,73.86
2019-02-05T16:22:26.324Z,73.71
2019-02-05T16:24:56.673Z,73.69
2019-02-05T16:27:26.886Z,73.53
2019-02-05T16:29:57.104Z,73.37
2019-02-05T16:32:28.733Z,73.28
2019-02-05T16:35:01.118Z,73.97
2019-02-05T16:37:31.476Z,73.90
2019-02-05T16:40:01.680Z,73.77
2019-02-05T16:42:32.215Z,74.11
2019-02-05T16:45:04.296Z,73.69
2019-02-05T16:47:34.483Z,73.56
2019-02-05T16:50:05.754Z,73.40
2019-02-05T16:52:38.809Z,74.30
2019-02-05T16:55:09.525Z,74.23
2019-02-05T16:57:44.773Z,73.41
2019-02-05T17:00:23.011Z,73.38
2019-02-05T17:02:53.720Z,73.99
2019-02-05T17:05:27.339Z,73.25
2019-02-05T17:07:58.107Z,73.27
2019-02-05T17:10:30.836Z,72.71
2019-02-05T17:13:01.117Z,73.31
2019-02-05T17:15:31.641Z,73.22
2019-02-05T17:18:02.434Z,72.78
2019-02-05T17:20:34.282Z,72.76
2019-02-05T17:23:05.249Z,72.71
2019-02-05T17:25:38.626Z,72.38
2019-02-05T17:28:12.098Z,72.66
2019-02-05T17:30:42.751Z,72.61
2019-02-05T17:33:13.349Z,72.05
2019-02-05T17:35:44.117Z,71.46
2019-02-05T17:38:22.207Z,71.63
2019-02-05T17:41:18.024Z,71.29
2019-02-05T17:43:51.893Z,71.68
2019-02-05T17:46:23.258Z,71.19
2019-02-05T17:48:59.148Z,71.27
2019-02-05T17:51:35.711Z,71.41
2019-02-05T17:54:07.296Z,70.57
2019-02-05T17:56:38.335Z,70.74
2019-02-05T17:59:11.764Z,70.68
2019-02-05T18:01:42.241Z,70.11
2019-02-05T18:04:12.914Z,70.77
2019-02-05T18:06:46.577Z,69.74
2019-02-05T18:09:30.427Z,70.84
2019-02-05T18:12:08.882Z,69.97
2019-02-05T18:14:39.908Z,69.93
2019-02-05T18:17:16.659Z,69.43
2019-02-05T18:19:47.068Z,69.16
2019-02-05T18:22:17.787Z,69.06
2019-02-05T18:24:48.131Z,68.46
2019-02-05T18:27:18.811Z,68.39
2019-02-05T18:29:49.433Z,68.27
2019-02-05T18:32:19.979Z,67.96
2019-02-05T18:34:50.490Z,68.12
2019-02-05T18:37:21.019Z,68.01
2019-02-05T18:39:51.523Z,67.61
2019-02-05T18:42:24.581Z,67.62
2019-02-05T18:44:55.386Z,66.88
2019-02-05T18:47:26.186Z,66.81
2019-02-05T18:49:57.059Z,66.72
2019-02-05T18:52:29.508Z,66.52
2019-02-05T18:55:00.666Z,66.15
2019-02-05T18:57:33.810Z,66.23
2019-02-05T19:00:18.578Z,65.77
2019-02-05T19:02:52.505Z,65.86
2019-02-05T19:05:23.120Z,65.66
2019-02-05T19:07:53.998Z,65.59
2019-02-05T19:10:25.543Z,65.59
2019-02-05T19:12:55.990Z,65.65
2019-02-05T19:15:33.896Z,66.03
2019-02-05T19:18:05.123Z,65.28
2019-02-05T19:20:35.824Z,65.75
2019-02-05T19:23:07.595Z,65.45
2019-02-05T19:25:59.749Z,64.56
2019-02-05T19:28:35.772Z,64.32
2019-02-05T19:31:29.382Z,64.24
2019-02-05T19:34:01.201Z,64.35
2019-02-05T19:36:32.134Z,64.43
2019-02-05T19:39:02.665Z,64.20
2019-02-05T19:41:34.961Z,64.47
2019-02-05T19:44:05.886Z,64.30
2019-02-05T19:47:03.826Z,64.36
2019-02-05T19:49:47.734Z,64.86
2019-02-05T19:52:21.866Z,65.52
2019-02-05T19:54:55.248Z,65.15
2019-02-05T19:57:25.530Z,64.84
2019-02-05T20:00:07.071Z,65.08
2019-02-05T20:02:39.272Z,66.10
2019-02-05T20:05:10.894Z,65.36
2019-02-05T20:07:41.422Z,64.99
2019-02-05T20:10:13.110Z,64.95
2019-02-05T20:12:43.507Z,64.80
2019-02-05T20:15:14.343Z,64.66
2019-02-05T20:17:47.804Z,64.50
2019-02-05T20:20:18.754Z,64.73
2019-02-05T20:22:49.784Z,64.45
2019-02-05T20:25:27.511Z,64.42
2019-02-05T20:28:01.136Z,64.23
2019-02-05T20:30:32.105Z,64.31
2019-02-05T20:33:05.231Z,64.08
2019-02-05T20:35:37.898Z,64.47
2019-02-05T20:38:10.307Z,64.22
2019-02-05T20:40:41.198Z,64.98
2019-02-05T20:43:15.495Z,64.23
2019-02-05T20:45:47.663Z,65.91
2019-02-05T20:48:18.740Z,64.94
2019-02-05T20:50:49.350Z,65.28
2019-02-05T20:53:19.903Z,65.11
2019-02-05T20:55:51.248Z,64.96
2019-02-05T20:58:22.284Z,64.02
2019-02-05T21:00:52.994Z,63.71
2019-02-05T21:03:24.009Z,63.62
2019-02-05T21:05:54.590Z,64.01
2019-02-05T21:08:25.314Z,63.67
2019-02-05T21:11:04.183Z,63.74
2019-02-05T21:13:36.509Z,63.94
2019-02-05T21:16:07.566Z,64.28
2019-02-05T21:18:37.865Z,64.52
2019-02-05T21:21:08.163Z,64.26
2019-02-05T21:23:38.659Z,63.90
2019-02-05T21:26:09.221Z,63.83
2019-02-05T21:28:40.209Z,63.46
2019-02-05T21:31:10.757Z,63.28
2019-02-05T21:33:41.180Z,63.38
2019-02-05T21:36:11.749Z,64.08
2019-02-05T21:38:45.433Z,64.28
2019-02-05T21:41:15.589Z,63.85
2019-02-05T21:43:49.264Z,65.00
2019-02-05T21:46:19.908Z,63.87
2019-02-05T21:48:50.422Z,64.80
2019-02-05T21:51:20.942Z,64.10
2019-02-05T21:53:51.579Z,63.51
2019-02-05T21:56:21.994Z,63.16
2019-02-05T21:58:52.390Z,63.72
2019-02-05T22:01:23.155Z,63.69
2019-02-05T22:03:53.873Z,63.81
2019-02-05T22:06:24.207Z,63.93
2019-02-05T22:08:55.031Z,63.63
2019-02-05T22:11:26.961Z,63.47
2019-02-05T22:13:57.324Z,63.96
2019-02-05T22:16:27.866Z,63.98
2019-02-05T22:18:58.364Z,63.97
2019-02-05T22:21:28.895Z,63.52
2019-02-05T22:23:59.742Z,63.31
2019-02-05T22:26:30.887Z,63.17
2019-02-05T22:29:01.853Z,63.07
2019-02-05T22:31:32.523Z,63.40
2019-02-05T22:34:03.153Z,63.69
2019-02-05T22:36:33.639Z,63.34
2019-02-05T22:39:05.960Z,63.18
2019-02-05T22:41:38.142Z,62.93
2019-02-05T22:44:08.679Z,63.52
2019-02-05T22:46:39.354Z,63.45
2019-02-05T22:49:09.966Z,63.22
2019-02-05T22:51:40.659Z,63.35
2019-02-05T22:54:11.160Z,62.74
2019-02-05T22:56:41.751Z,62.70
2019-02-05T22:59:12.817Z,62.82
2019-02-05T23:01:55.954Z,63.14
2019-02-05T23:05:06.249Z,63.15
2019-02-05T23:07:36.950Z,63.09
2019-02-05T23:11:06.534Z,63.69
2019-02-05T23:13:37.328Z,62.97
2019-02-05T23:16:07.985Z,63.96
2019-02-05T23:18:38.710Z,63.72
2019-02-05T23:21:09.382Z,63.08
2019-02-05T23:23:40.101Z,62.87
2019-02-05T23:26:10.880Z,62.66
2019-02-05T23:28:41.641Z,62.86
2019-02-05T23:31:12.088Z,62.87
2019-02-05T23:33:44.670Z,63.23
2019-02-05T23:36:14.807Z,62.95
2019-02-05T23:38:45.351Z,62.84
2019-02-05T23:41:16.409Z,62.91
2019-02-05T23:43:46.757Z,63.06
2019-02-05T23:46:17.490Z,63.55
2019-02-05T23:48:48.085Z,63.27
2019-02-05T23:51:18.506Z,62.95
2019-02-05T23:53:48.887Z,62.91
2019-02-05T23:56:25.644Z,62.55
2019-02-05T23:58:51.709Z,62.88
